Terminal Aerodrome Forecast
Issued by NWS Memphis, TN

Home | Current Version | Previous Version | Text Only | Print | Product List | Glossary On
Versions: 1 2 3 4 5 6 7 8 9 10 11 12 13 14 15 16 17 18 19 20 21 22 23 24 25 26 27 28 29 30 31 32
000
FTUS44 KMEG 190908 AAB
TAFMKL
TAF AMD
KMKL 190908Z 1909/2006 16004KT 6SM -SHRA BR OVC009
     FM191100 18004KT 5SM -SHRA BR OVC007
     FM191300 23006KT P6SM VCSH OVC007
     FM191500 25010KT P6SM VCSH BKN015
     FM191800 26010KT P6SM SCT025 BKN040
     FM192000 25010KT P6SM SCT040 BKN250
     FM200500 18008KT P6SM VCTS SCT020 BKN040CB=

USA.gov is the U.S. government's official web portal to all federal, state and local government web resources and services.